createdAt,value
2022-09-07T00:03:24.454Z,4.53
2022-09-07T00:13:29.726Z,4.90
2022-09-07T00:23:35.010Z,5.53
2022-09-07T00:33:37.815Z,4.80
2022-09-07T00:43:44.393Z,5.15
2022-09-07T00:53:53.825Z,4.75
2022-09-07T01:03:59.797Z,4.72
2022-09-07T01:14:04.117Z,5.63
2022-09-07T01:24:36.466Z,4.53
2022-09-07T01:34:44.447Z,5.50
2022-09-07T01:44:51.156Z,5.30
2022-09-07T01:54:59.567Z,5.72
2022-09-07T02:05:07.085Z,6.55
2022-09-07T02:15:15.882Z,6.53
2022-09-07T02:25:22.988Z,6.63
2022-09-07T02:35:27.203Z,6.82
2022-09-07T02:45:36.728Z,7.38
2022-09-07T02:55:51.184Z,7.85
2022-09-07T03:05:58.555Z,8.35
2022-09-07T03:16:03.317Z,8.45
2022-09-07T03:26:06.534Z,8.32
2022-09-07T03:36:10.935Z,8.88
2022-09-07T03:46:18.118Z,10.45
2022-09-07T03:56:24.223Z,9.30
2022-09-07T04:06:27.073Z,10.18
2022-09-07T04:16:31.815Z,9.60
2022-09-07T04:26:37.009Z,10.80
2022-09-07T04:36:41.112Z,11.90
2022-09-07T04:46:44.011Z,11.10
2022-09-07T04:56:48.081Z,11.13
2022-09-07T05:06:50.798Z,10.93
2022-09-07T05:16:54.945Z,10.85
2022-09-07T05:26:59.517Z,11.07
2022-09-07T05:37:03.902Z,11.43
2022-09-07T05:47:06.948Z,11.35
2022-09-07T05:57:13.566Z,11.73
2022-09-07T06:07:23.741Z,12.45
2022-09-07T06:17:28.766Z,11.50
2022-09-07T06:27:31.658Z,12.05
2022-09-07T06:37:35.888Z,12.45
2022-09-07T06:47:38.802Z,12.52
2022-09-07T06:57:42.908Z,13.23
2022-09-07T07:07:45.636Z,12.38
2022-09-07T07:17:58.120Z,11.98
2022-09-07T07:48:49.482Z,11.13
2022-09-07T07:58:53.662Z,10.38
2022-09-07T08:08:57.041Z,11.73
2022-09-07T08:19:01.104Z,11.20
2022-09-07T08:29:03.935Z,11.13
2022-09-07T08:39:08.007Z,10.63
2022-09-07T08:49:17.305Z,10.50
2022-09-07T08:59:25.364Z,9.23
2022-09-07T09:09:39.056Z,8.37
2022-09-07T09:19:58.324Z,9.90
2022-09-07T09:30:01.041Z,9.15
2022-09-07T09:40:06.932Z,9.20
2022-09-07T10:11:18.779Z,7.82
2022-09-07T10:21:28.532Z,7.60
2022-09-07T10:31:32.705Z,6.90
2022-09-07T10:41:46.651Z,7.55
2022-09-07T10:52:00.864Z,7.55
2022-09-07T11:02:14.933Z,7.45
2022-09-07T11:12:23.835Z,7.78
2022-09-07T11:22:36.636Z,7.15
2022-09-07T11:32:47.230Z,7.72
2022-09-07T11:42:55.734Z,7.30
2022-09-07T12:03:38.101Z,6.30
2022-09-07T12:14:09.143Z,5.95
2022-09-07T12:24:39.938Z,6.90
2022-09-07T12:35:00.595Z,5.10
2022-09-07T12:45:40.832Z,6.30
2022-09-07T12:56:17.196Z,6.57
2022-09-07T13:07:05.822Z,6.82
2022-09-07T13:17:44.818Z,7.05
2022-09-07T13:27:53.105Z,6.05
2022-09-07T13:37:59.840Z,3.88
2022-09-07T13:48:14.892Z,4.80
2022-09-07T13:58:22.241Z,4.30
2022-09-07T14:08:27.716Z,3.13
2022-09-07T14:18:32.834Z,3.00
2022-09-07T14:28:39.376Z,2.80
2022-09-07T14:49:20.349Z,2.10
2022-09-07T14:59:42.315Z,2.17
2022-09-07T15:09:44.993Z,2.10
2022-09-07T15:19:50.315Z,1.77
2022-09-07T15:29:53.089Z,2.10
2022-09-07T15:39:57.318Z,2.60
2022-09-07T15:50:00.032Z,2.65
2022-09-07T16:00:06.154Z,2.45
2022-09-07T16:10:09.850Z,6.25
2022-09-07T16:20:14.323Z,2.30
2022-09-07T16:30:17.012Z,2.00
2022-09-07T16:40:21.075Z,2.15
2022-09-07T16:50:23.717Z,3.63
2022-09-07T17:00:31.303Z,2.95
2022-09-07T17:10:36.225Z,3.15
2022-09-07T17:20:40.700Z,2.63
2022-09-07T17:30:45.207Z,2.90
2022-09-07T17:40:49.259Z,2.75
2022-09-07T17:51:01.135Z,3.17
2022-09-07T18:01:07.555Z,3.67
2022-09-07T18:21:38.387Z,3.75
2022-09-07T18:31:41.138Z,3.55
2022-09-07T18:41:45.751Z,3.50
2022-09-07T19:02:13.618Z,3.72
2022-09-07T19:12:16.807Z,5.05
2022-09-07T19:22:20.961Z,4.13
2022-09-07T19:32:25.519Z,4.13
2022-09-07T19:42:29.640Z,4.15
2022-09-07T19:52:32.407Z,3.92
2022-09-07T20:02:36.534Z,4.50
2022-09-07T20:12:39.233Z,4.72
2022-09-07T20:22:43.252Z,6.13
2022-09-07T20:32:45.943Z,7.00
2022-09-07T20:42:50.021Z,7.40
2022-09-07T20:52:53.807Z,7.25
2022-09-07T21:02:58.569Z,7.20
2022-09-07T21:13:01.223Z,7.78
2022-09-07T21:23:05.547Z,8.30
2022-09-07T21:33:08.319Z,8.07
2022-09-07T21:43:12.406Z,7.40
2022-09-07T21:53:15.186Z,8.57
2022-09-07T22:03:19.266Z,9.05
2022-09-07T22:13:21.978Z,9.20
2022-09-07T22:23:26.014Z,8.18
2022-09-07T22:33:28.675Z,11.10
2022-09-07T22:43:32.777Z,10.00
2022-09-07T22:53:36.865Z,10.05
2022-09-07T23:03:40.901Z,10.95
2022-09-07T23:13:43.679Z,11.35
2022-09-07T23:23:52.066Z,12.57
2022-09-07T23:33:54.955Z,10.60
2022-09-07T23:43:59.282Z,10.05
2022-09-07T23:54:02.269Z,12.13
